createdAt,value
2023-02-18T00:01:51.927Z,2.10
2023-02-18T00:04:20.175Z,2.10
2023-02-18T00:06:48.038Z,1.80
2023-02-18T00:09:15.999Z,3.20
2023-02-18T00:11:43.932Z,2.80
2023-02-18T00:14:16.427Z,3.00
2023-02-18T00:16:46.449Z,2.40
2023-02-18T00:19:19.258Z,2.50
2023-02-18T00:21:48.056Z,2.80
2023-02-18T00:24:17.329Z,2.60
2023-02-18T00:26:45.850Z,1.60
2023-02-18T00:29:14.041Z,2.50
2023-02-18T00:31:42.233Z,2.70
2023-02-18T00:34:12.599Z,2.50
2023-02-18T00:36:41.554Z,1.50
2023-02-18T00:39:11.866Z,2.20
2023-02-18T00:41:40.380Z,2.40
2023-02-18T00:44:09.927Z,2.50
2023-02-18T00:46:38.720Z,2.50
2023-02-18T00:49:07.421Z,2.60
2023-02-18T00:51:35.714Z,2.50
2023-02-18T00:54:03.872Z,1.70
2023-02-18T00:56:31.833Z,1.40
2023-02-18T00:58:59.804Z,2.20
2023-02-18T01:01:28.254Z,2.50
2023-02-18T01:03:56.546Z,1.80
2023-02-18T01:06:24.474Z,1.30
2023-02-18T01:08:52.287Z,2.40
2023-02-18T01:11:20.433Z,1.70
2023-02-18T01:13:48.371Z,1.40
2023-02-18T01:16:17.235Z,2.40
2023-02-18T01:18:45.566Z,2.30
2023-02-18T01:21:13.731Z,1.60
2023-02-18T01:23:42.303Z,1.70
2023-02-18T01:26:12.073Z,2.00
2023-02-18T01:28:41.797Z,2.60
2023-02-18T01:31:13.877Z,2.90
2023-02-18T01:33:42.933Z,2.20
2023-02-18T01:36:13.277Z,3.30
2023-02-18T01:38:41.221Z,3.30
2023-02-18T01:41:10.234Z,1.80
2023-02-18T01:43:39.780Z,1.60
2023-02-18T01:46:22.058Z,2.30
2023-02-18T01:49:01.603Z,1.90
2023-02-18T01:51:46.957Z,1.20
2023-02-18T01:54:30.030Z,2.20
2023-02-18T01:57:02.716Z,1.20
2023-02-18T01:59:39.997Z,1.70
2023-02-18T02:02:15.476Z,2.50
2023-02-18T02:04:44.070Z,2.20
2023-02-18T02:07:12.573Z,1.40
2023-02-18T02:09:42.652Z,2.40
2023-02-18T02:12:49.181Z,1.90
2023-02-18T02:15:44.339Z,2.70
2023-02-18T02:18:41.570Z,1.40
2023-02-18T02:21:19.461Z,1.30
2023-02-18T02:24:25.924Z,2.60
2023-02-18T02:27:21.545Z,2.10
2023-02-18T02:30:13.621Z,1.80
2023-02-18T02:33:24.975Z,2.40
2023-02-18T02:36:02.323Z,2.70
2023-02-18T02:38:40.128Z,1.70
2023-02-18T02:41:39.331Z,2.30
2023-02-18T02:44:18.355Z,2.20
2023-02-18T02:46:54.065Z,1.40
2023-02-18T02:50:06.555Z,2.00
2023-02-18T02:52:44.319Z,2.80
2023-02-18T02:55:13.164Z,2.00
2023-02-18T02:57:51.412Z,2.10
2023-02-18T03:00:46.636Z,2.20
2023-02-18T03:03:32.063Z,2.80
2023-02-18T03:06:21.644Z,1.80
2023-02-18T03:09:16.809Z,2.20
2023-02-18T03:12:03.802Z,1.50
2023-02-18T03:15:26.972Z,1.00
2023-02-18T03:18:01.398Z,2.60
2023-02-18T03:20:39.378Z,2.80
2023-02-18T03:23:20.601Z,2.20
2023-02-18T03:25:50.919Z,1.60
2023-02-18T03:28:22.997Z,2.60
2023-02-18T03:30:58.061Z,2.10
2023-02-18T03:33:37.461Z,2.40
2023-02-18T03:36:07.050Z,1.10
2023-02-18T03:38:40.726Z,1.40
2023-02-18T03:41:10.618Z,1.60
2023-02-18T03:43:41.720Z,1.70
2023-02-18T03:46:09.820Z,1.70
2023-02-18T03:48:37.806Z,1.90
2023-02-18T03:51:05.986Z,1.70
2023-02-18T03:53:33.847Z,1.00
2023-02-18T03:56:01.644Z,1.60
2023-02-18T03:58:29.612Z,1.40
2023-02-18T04:00:57.407Z,2.00
2023-02-18T04:03:25.259Z,1.90
2023-02-18T04:05:53.074Z,1.80
2023-02-18T04:08:21.010Z,2.20
2023-02-18T04:10:48.916Z,1.80
2023-02-18T04:13:18.104Z,1.30
2023-02-18T04:15:46.504Z,1.70
2023-02-18T08:39:40.228Z,1.60
2023-02-18T08:42:07.062Z,1.70
2023-02-18T08:44:34.063Z,1.30
2023-02-18T08:47:01.393Z,0.90
2023-02-18T08:49:28.371Z,1.40
2023-02-18T08:51:55.740Z,0.90
2023-02-18T08:54:22.850Z,1.90
2023-02-18T08:56:49.396Z,1.50
2023-02-18T08:59:16.085Z,1.10
2023-02-18T09:01:42.656Z,1.10
2023-02-18T09:04:09.179Z,1.20
2023-02-18T09:06:38.960Z,0.90
2023-02-18T09:09:07.028Z,1.90
2023-02-18T09:11:34.132Z,2.00
2023-02-18T09:14:00.729Z,1.20
2023-02-18T09:16:27.729Z,1.60
2023-02-18T09:18:54.512Z,1.70
2023-02-18T09:21:25.688Z,1.70
2023-02-18T09:23:52.582Z,2.10
2023-02-18T09:26:25.752Z,1.10
2023-02-18T09:28:55.731Z,1.90
2023-02-18T09:31:26.291Z,1.20
2023-02-18T09:34:00.885Z,2.10
2023-02-18T09:36:28.923Z,1.40
2023-02-18T09:38:56.730Z,1.20
2023-02-18T09:41:28.132Z,1.50
2023-02-18T09:44:01.391Z,0.90
2023-02-18T09:46:38.598Z,1.20
2023-02-18T09:49:39.752Z,1.40
2023-02-18T09:52:23.659Z,1.60
2023-02-18T09:54:51.578Z,1.70
2023-02-18T09:57:29.048Z,2.00
2023-02-18T10:00:14.721Z,1.20
2023-02-18T10:02:59.723Z,1.80
2023-02-18T10:05:30.394Z,0.90
2023-02-18T10:08:05.844Z,1.20
2023-02-18T10:10:46.260Z,1.80
2023-02-18T10:13:24.529Z,1.60
2023-02-18T10:15:52.306Z,2.00
2023-02-18T10:18:42.162Z,1.00
2023-02-18T10:21:13.713Z,0.70
2023-02-18T10:23:59.092Z,2.10
2023-02-18T10:26:28.728Z,0.80
2023-02-18T10:28:55.545Z,1.80
2023-02-18T10:31:35.179Z,1.30
2023-02-18T10:34:20.915Z,2.00
2023-02-18T10:36:55.710Z,0.80
2023-02-18T10:39:45.585Z,2.50
2023-02-18T10:42:30.498Z,1.40
2023-02-18T10:45:20.545Z,0.90
2023-02-18T10:48:02.906Z,1.50
2023-02-18T10:50:41.194Z,1.70
2023-02-18T10:53:27.688Z,2.20
2023-02-18T10:55:56.102Z,1.40
2023-02-18T10:58:46.246Z,1.20
2023-02-18T11:01:18.776Z,1.10
2023-02-18T11:03:50.537Z,1.80
2023-02-18T11:06:28.936Z,0.80
2023-02-18T11:08:58.374Z,1.70
2023-02-18T11:11:38.558Z,1.30
2023-02-18T11:14:09.386Z,0.80
2023-02-18T11:16:46.989Z,1.50
2023-02-18T11:19:43.118Z,1.00
2023-02-18T11:22:19.264Z,1.50
2023-02-18T11:24:49.709Z,1.00
2023-02-18T11:27:30.202Z,1.40
2023-02-18T11:30:19.100Z,0.90
2023-02-18T11:32:51.910Z,1.10
2023-02-18T11:35:24.490Z,0.90
2023-02-18T11:37:52.773Z,0.40
2023-02-18T11:40:35.784Z,2.00
2023-02-18T11:43:19.135Z,1.10
2023-02-18T11:45:46.923Z,0.90
2023-02-18T11:48:22.247Z,0.90
2023-02-18T11:50:53.574Z,1.10
2023-02-18T11:53:26.137Z,1.70
2023-02-18T11:56:06.441Z,1.30
2023-02-18T11:58:46.133Z,0.90
2023-02-18T12:01:27.328Z,2.10
2023-02-18T12:04:07.162Z,1.30
2023-02-18T12:06:52.887Z,1.50
2023-02-18T12:09:32.574Z,1.40
2023-02-18T12:12:07.088Z,1.10
2023-02-18T12:14:35.572Z,0.60
2023-02-18T12:17:30.280Z,1.00
2023-02-18T12:20:38.701Z,1.10
2023-02-18T12:23:33.798Z,1.30
2023-02-18T12:26:32.590Z,1.40
2023-02-18T12:29:37.009Z,0.60
2023-02-18T12:32:33.651Z,1.90
2023-02-18T12:35:34.733Z,1.60
2023-02-18T12:38:23.539Z,1.80
2023-02-18T12:41:04.782Z,0.60
2023-02-18T12:43:50.316Z,1.00
2023-02-18T12:47:04.561Z,0.80
2023-02-18T12:49:46.350Z,1.20
2023-02-18T12:52:21.976Z,1.50
2023-02-18T12:55:08.204Z,1.30
2023-02-18T12:58:21.710Z,1.20
2023-02-18T13:01:22.680Z,0.90
2023-02-18T13:04:14.399Z,1.10
2023-02-18T13:06:54.733Z,1.50
2023-02-18T13:09:52.327Z,0.90
2023-02-18T13:12:49.346Z,1.50
2023-02-18T13:15:23.027Z,1.20
2023-02-18T13:17:55.528Z,1.10
2023-02-18T13:20:30.619Z,1.10
2023-02-18T13:22:57.338Z,1.00
2023-02-18T13:25:24.545Z,1.20
2023-02-18T13:28:17.460Z,0.90
2023-02-18T13:31:10.639Z,0.80
2023-02-18T13:33:59.783Z,0.60
2023-02-18T13:36:46.991Z,0.80
2023-02-18T13:39:19.876Z,1.10
2023-02-18T13:41:50.799Z,1.20
2023-02-18T13:44:20.331Z,1.00
2023-02-18T13:46:53.979Z,0.90
2023-02-18T13:49:24.116Z,0.80
2023-02-18T13:51:54.888Z,0.90
2023-02-18T13:54:41.233Z,1.70
2023-02-18T13:57:25.194Z,0.70
2023-02-18T14:00:04.134Z,0.90
2023-02-18T14:02:35.258Z,1.50
2023-02-18T14:05:10.622Z,1.10
2023-02-18T14:07:48.575Z,1.40
2023-02-18T14:10:21.066Z,0.80
2023-02-18T14:12:56.763Z,0.70
2023-02-18T14:15:23.197Z,0.60
2023-02-18T14:18:12.216Z,1.50
2023-02-18T14:20:38.655Z,1.20
2023-02-18T14:23:40.260Z,1.20
2023-02-18T14:26:33.774Z,1.20
2023-02-18T14:29:09.837Z,0.80
2023-02-18T14:31:53.715Z,0.50
2023-02-18T14:34:38.218Z,1.30
2023-02-18T14:37:28.134Z,0.80
2023-02-18T14:40:42.830Z,1.10
2023-02-18T14:43:27.205Z,1.10
2023-02-18T14:46:54.744Z,1.80
2023-02-18T14:49:51.350Z,1.20
2023-02-18T14:52:52.655Z,0.90
2023-02-18T14:55:34.035Z,0.70
2023-02-18T14:58:07.788Z,0.70
2023-02-18T15:00:41.614Z,1.30
2023-02-18T15:03:22.260Z,1.00
2023-02-18T15:05:52.155Z,1.20
2023-02-18T15:08:22.865Z,1.00
2023-02-18T15:11:05.921Z,1.80
2023-02-18T15:13:43.801Z,1.00
2023-02-18T15:16:29.584Z,1.10
2023-02-18T15:19:07.316Z,1.60
2023-02-18T15:21:42.619Z,1.70
2023-02-18T15:24:15.254Z,1.80
2023-02-18T15:26:48.602Z,0.90
2023-02-18T15:29:28.341Z,0.90
2023-02-18T15:31:57.856Z,1.50
2023-02-18T15:34:37.075Z,1.60
2023-02-18T15:37:08.048Z,1.70
2023-02-18T15:39:38.131Z,1.70
2023-02-18T15:42:17.979Z,1.30
2023-02-18T15:44:49.710Z,1.00
2023-02-18T15:47:27.788Z,0.90
2023-02-18T15:49:59.935Z,0.70
2023-02-18T15:52:31.264Z,1.00
2023-02-18T15:55:11.378Z,1.00
2023-02-18T15:57:39.818Z,0.90
2023-02-18T16:00:19.844Z,1.40
2023-02-18T16:02:55.220Z,1.30
2023-02-18T16:05:27.685Z,0.90
2023-02-18T16:08:01.642Z,0.90
2023-02-18T16:10:35.817Z,1.00
2023-02-18T16:13:07.367Z,1.10
2023-02-18T16:15:44.723Z,1.40
2023-02-18T16:18:35.498Z,1.40
2023-02-18T16:21:22.375Z,1.10
2023-02-18T16:23:57.641Z,1.20
2023-02-18T16:26:39.553Z,1.50
2023-02-18T16:29:15.391Z,0.60
2023-02-18T16:31:42.713Z,1.10
2023-02-18T16:34:09.265Z,0.80
2023-02-18T16:36:35.904Z,0.80
2023-02-18T16:39:03.016Z,0.50
2023-02-18T16:41:29.820Z,0.80
2023-02-18T16:43:57.348Z,2.50
2023-02-18T16:46:25.072Z,1.20
2023-02-18T16:48:55.160Z,1.30
2023-02-18T16:51:34.735Z,1.30
2023-02-18T16:54:01.281Z,1.20
2023-02-18T16:56:32.935Z,1.50
2023-02-18T16:58:59.600Z,1.60
2023-02-18T17:01:37.651Z,1.60
2023-02-18T17:04:05.454Z,1.10
2023-02-18T17:06:34.089Z,1.40
2023-02-18T17:09:00.949Z,1.10
2023-02-18T17:11:35.116Z,1.40
2023-02-18T17:14:12.854Z,1.10
2023-02-18T17:16:39.578Z,1.00
2023-02-18T17:19:06.058Z,1.00
2023-02-18T17:21:32.635Z,0.70
2023-02-18T17:23:59.090Z,0.90
2023-02-18T17:26:30.353Z,1.20
2023-02-18T17:29:02.847Z,1.70
2023-02-18T17:31:37.217Z,0.90
2023-02-18T17:34:08.854Z,0.70
2023-02-18T17:36:35.453Z,0.80
2023-02-18T17:39:05.779Z,0.60
2023-02-18T17:41:32.250Z,1.20
2023-02-18T17:43:59.399Z,0.90
2023-02-18T17:46:27.075Z,1.00
2023-02-18T17:48:53.945Z,1.70
2023-02-18T17:51:28.977Z,1.30
2023-02-18T17:53:55.697Z,1.60
2023-02-18T17:56:22.581Z,1.60
2023-02-18T17:58:49.191Z,1.10
2023-02-18T18:01:18.134Z,1.20
2023-02-18T18:03:44.730Z,1.40
2023-02-18T18:06:17.578Z,1.30
2023-02-18T18:08:45.022Z,1.40
2023-02-18T18:11:29.372Z,1.20
2023-02-18T18:13:57.425Z,0.90
2023-02-18T18:16:26.217Z,0.80
2023-02-18T18:18:53.029Z,0.90
2023-02-18T18:21:35.003Z,1.20
2023-02-18T18:24:02.662Z,1.10
2023-02-18T18:26:30.453Z,1.00
2023-02-18T18:28:57.214Z,1.30
2023-02-18T18:31:24.740Z,1.80
2023-02-18T18:33:52.546Z,1.10
2023-02-18T18:36:20.850Z,1.40
2023-02-18T18:38:47.877Z,1.30
2023-02-18T18:41:19.574Z,0.80
2023-02-18T18:43:46.461Z,1.20
2023-02-18T18:46:13.070Z,0.80
2023-02-18T18:48:39.690Z,1.20
2023-02-18T18:51:06.472Z,0.70
2023-02-18T18:53:35.498Z,1.10
2023-02-18T18:56:07.926Z,1.00
2023-02-18T18:58:34.692Z,1.10
2023-02-18T19:01:06.247Z,1.70
2023-02-18T19:03:34.956Z,1.80
2023-02-18T19:06:01.609Z,1.10
2023-02-18T19:08:28.675Z,1.40
2023-02-18T19:10:56.838Z,0.80
2023-02-18T19:13:27.344Z,1.30
2023-02-18T19:16:11.737Z,0.80
2023-02-18T19:18:38.514Z,0.60
2023-02-18T19:21:05.434Z,0.60
2023-02-18T19:23:33.515Z,1.10
2023-02-18T19:26:00.634Z,0.80
2023-02-18T19:28:28.133Z,0.40
2023-02-18T19:30:54.891Z,1.00
2023-02-18T19:33:21.538Z,0.70
2023-02-18T19:35:48.811Z,0.80
2023-02-18T19:38:17.823Z,0.60
2023-02-18T19:40:45.266Z,1.20
2023-02-18T19:43:12.474Z,0.90
2023-02-18T19:45:46.848Z,0.90
2023-02-18T19:48:15.283Z,0.90
2023-02-18T19:50:43.158Z,1.10
2023-02-18T19:53:11.014Z,1.10
2023-02-18T19:55:39.033Z,1.10
2023-02-18T19:58:06.912Z,0.80
2023-02-18T20:00:33.470Z,1.10
2023-02-18T20:03:00.030Z,1.30
2023-02-18T20:05:26.823Z,0.80
2023-02-18T20:07:53.393Z,1.30
2023-02-18T20:10:20.529Z,1.00
2023-02-18T20:12:53.299Z,1.00
2023-02-18T20:15:21.013Z,1.10
2023-02-18T20:17:48.607Z,0.60
2023-02-18T20:20:16.162Z,1.00
2023-02-18T20:22:42.664Z,1.40
2023-02-18T20:25:09.273Z,0.80
2023-02-18T20:27:36.536Z,1.60
2023-02-18T20:30:11.442Z,1.70
2023-02-18T20:32:40.294Z,1.00
2023-02-18T20:35:13.800Z,0.80
2023-02-18T20:37:40.739Z,0.70
2023-02-18T20:40:08.440Z,0.90
2023-02-18T20:42:35.755Z,0.90
2023-02-18T20:45:02.946Z,1.00
2023-02-18T20:47:33.252Z,1.40
2023-02-18T20:49:59.852Z,1.20
2023-02-18T20:52:26.917Z,0.60
2023-02-18T20:54:56.968Z,0.80
2023-02-18T20:57:23.468Z,0.70
2023-02-18T20:59:50.219Z,0.80
2023-02-18T21:02:17.891Z,0.70
2023-02-18T21:04:44.709Z,1.40
2023-02-18T21:07:11.450Z,1.40
2023-02-18T21:09:40.371Z,0.80
2023-02-18T21:12:09.357Z,1.00
2023-02-18T21:14:35.857Z,0.50
2023-02-18T21:17:05.163Z,0.70
2023-02-18T21:19:31.724Z,0.90
2023-02-18T21:21:59.513Z,0.80
2023-02-18T21:24:27.630Z,0.70
2023-02-18T21:26:54.691Z,0.80
2023-02-18T21:29:21.212Z,0.90
2023-02-18T21:31:48.584Z,1.10
2023-02-18T21:34:15.797Z,0.80
2023-02-18T21:36:43.379Z,0.90
2023-02-18T21:39:11.094Z,0.70
2023-02-18T21:41:40.977Z,0.60
2023-02-18T21:44:09.927Z,0.20
2023-02-18T21:46:37.178Z,0.70
2023-02-18T21:49:06.168Z,0.80
2023-02-18T21:51:59.762Z,0.70
2023-02-18T21:54:36.443Z,1.00
2023-02-18T21:57:06.147Z,0.70
2023-02-18T21:59:34.685Z,0.90
2023-02-18T22:02:03.978Z,0.60
2023-02-18T22:04:33.932Z,0.50
2023-02-18T22:07:01.838Z,0.40
2023-02-18T22:09:28.903Z,0.80
2023-02-18T22:11:55.492Z,1.00
2023-02-18T22:14:22.198Z,0.70
2023-02-18T22:16:48.730Z,0.60
2023-02-18T22:19:15.391Z,0.60
2023-02-18T22:21:42.133Z,0.30
2023-02-18T22:24:12.630Z,0.70
2023-02-18T22:26:39.789Z,0.60
2023-02-18T22:29:06.737Z,0.80
2023-02-18T22:31:33.264Z,0.50
2023-02-18T22:34:00.141Z,0.30
2023-02-18T22:36:28.538Z,0.30
2023-02-18T22:38:55.883Z,0.70
2023-02-18T22:41:25.129Z,0.40
2023-02-18T22:43:57.623Z,0.40
2023-02-18T22:46:26.175Z,0.50
2023-02-18T22:48:56.154Z,0.80
2023-02-18T22:51:30.759Z,0.60
2023-02-18T22:54:02.367Z,0.50
2023-02-18T22:56:29.979Z,0.40
2023-02-18T22:58:59.073Z,0.30
2023-02-18T23:01:33.702Z,0.60
2023-02-18T23:04:12.784Z,0.40
2023-02-18T23:06:50.352Z,0.30
2023-02-18T23:09:24.654Z,0.60
2023-02-18T23:11:55.610Z,0.80
2023-02-18T23:14:27.544Z,0.40
2023-02-18T23:17:14.277Z,0.30
2023-02-18T23:19:50.098Z,0.40
2023-02-18T23:22:24.566Z,0.80
2023-02-18T23:24:51.061Z,0.30
2023-02-18T23:27:18.048Z,0.50
2023-02-18T23:29:44.751Z,0.50
2023-02-18T23:32:11.670Z,0.30
2023-02-18T23:34:38.290Z,0.20
2023-02-18T23:37:05.374Z,0.40
2023-02-18T23:39:32.820Z,1.00
2023-02-18T23:41:59.365Z,0.40
2023-02-18T23:44:27.549Z,0.90
2023-02-18T23:46:54.938Z,0.50
2023-02-18T23:49:25.199Z,0.60
2023-02-18T23:51:55.771Z,0.40
2023-02-18T23:54:23.882Z,0.30
2023-02-18T23:56:50.441Z,0.30
2023-02-18T23:59:17.695Z,0.50
